createdAt,value
2018-02-17T00:04:06.420Z,17.40
2018-02-17T00:06:52.536Z,12.90
2018-02-17T00:09:38.749Z,15.17
2018-02-17T00:12:24.828Z,10.83
2018-02-17T00:15:24.514Z,14.33
2018-02-17T00:20:01.126Z,12.87
2018-02-17T00:23:51.522Z,18.23
2018-02-17T00:26:24.067Z,12.13
2018-02-17T00:28:56.354Z,15.50
2018-02-17T00:31:28.373Z,11.37
2018-02-17T00:34:00.623Z,13.90
2018-02-17T00:36:49.067Z,12.50
2018-02-17T00:44:47.180Z,11.90
2018-02-17T00:47:55.620Z,17.15
2018-02-17T00:50:27.760Z,10.57
2018-02-17T00:52:59.873Z,13.73
2018-02-17T00:55:32.044Z,12.33
2018-02-17T00:58:04.945Z,15.07
2018-02-17T01:00:52.117Z,17.70
2018-02-17T01:05:53.101Z,10.90
2018-02-17T01:08:25.506Z,11.17
2018-02-17T01:10:57.852Z,24.73
2018-02-17T01:13:29.994Z,18.20
2018-02-17T01:16:02.112Z,17.63
2018-02-17T01:22:06.982Z,12.77
2018-02-17T01:24:54.754Z,17.67
2018-02-17T01:29:55.738Z,13.37
2018-02-17T01:32:28.796Z,16.73
2018-02-17T01:35:16.846Z,11.40
2018-02-17T01:40:17.722Z,13.23
2018-02-17T01:42:51.036Z,11.93
2018-02-17T01:45:33.885Z,12.23
2018-02-17T02:10:56.245Z,13.37
2018-02-17T02:13:28.426Z,12.30
2018-02-17T02:16:00.698Z,16.70
2018-02-17T02:18:43.132Z,16.97
2018-02-17T02:37:50.220Z,13.27
2018-02-17T03:00:03.176Z,21.80
2018-02-17T03:02:45.920Z,18.63
2018-02-17T03:28:08.882Z,18.13
2018-02-17T03:30:51.546Z,16.83
2018-02-17T03:56:14.684Z,16.90
2018-02-17T03:59:02.856Z,12.60
2018-02-17T04:18:00.067Z,15.80
2018-02-17T04:20:32.196Z,16.60
2018-02-17T04:23:05.088Z,16.40
2018-02-17T04:25:53.070Z,14.50
2018-02-17T04:30:54.053Z,15.60
2018-02-17T04:33:37.838Z,14.10
2018-02-17T04:59:03.212Z,14.90
2018-02-17T05:02:04.380Z,18.13
2018-02-17T05:27:30.010Z,14.20
2018-02-17T05:30:16.811Z,16.93
2018-02-17T05:33:03.891Z,15.70
2018-02-17T06:02:16.684Z,17.00
2018-02-17T06:21:24.852Z,15.13
2018-02-17T06:40:22.102Z,14.93
2018-02-17T06:42:55.117Z,14.00
2018-02-17T06:45:27.313Z,16.40
2018-02-17T06:48:10.844Z,18.10
2018-02-17T06:53:11.731Z,15.87
2018-02-17T06:55:43.823Z,14.90
2018-02-17T06:58:16.285Z,16.37
2018-02-17T07:00:49.465Z,16.15
2018-02-17T07:03:23.302Z,14.67
2018-02-17T07:05:55.410Z,14.90
2018-02-17T07:08:27.575Z,15.93
2018-02-17T07:10:59.822Z,14.97
2018-02-17T07:13:31.936Z,15.60
2018-02-17T07:16:04.107Z,15.80
2018-02-17T07:22:15.863Z,15.23
2018-02-17T07:24:48.304Z,15.03
2018-02-17T07:27:20.394Z,13.17
2018-02-17T07:29:52.467Z,18.30
2018-02-17T07:32:24.736Z,15.73
2018-02-17T07:35:12.328Z,13.70
2018-02-17T07:40:23.262Z,24.60
2018-02-17T08:05:56.107Z,15.97
2018-02-17T08:31:19.486Z,14.02
2018-02-17T08:33:52.363Z,14.70
2018-02-17T08:36:25.575Z,17.35
2018-02-17T08:38:58.783Z,15.40
2018-02-17T08:41:46.070Z,15.03
2018-02-17T08:46:49.906Z,13.90
2018-02-17T08:49:22.762Z,14.87
2018-02-17T08:52:10.703Z,14.53
2018-02-17T08:57:11.533Z,15.13
2018-02-17T08:59:43.741Z,14.60
2018-02-17T09:02:15.833Z,13.87
2018-02-17T09:04:48.844Z,14.20
2018-02-17T09:07:31.307Z,15.80
2018-02-17T09:12:33.253Z,14.43
2018-02-17T09:15:15.501Z,14.50
2018-02-17T09:40:38.814Z,13.43
2018-02-17T09:43:27.985Z,14.20
2018-02-17T10:09:05.546Z,13.63
2018-02-17T10:34:33.392Z,15.47
2018-02-17T10:37:06.281Z,15.77
2018-02-17T10:39:38.507Z,16.37
2018-02-17T10:42:10.680Z,18.13
2018-02-17T10:47:51.867Z,14.90
2018-02-17T11:13:14.961Z,17.47
2018-02-17T11:15:57.219Z,17.43
2018-02-17T11:41:14.467Z,15.70
2018-02-17T11:43:46.700Z,16.00
2018-02-17T11:46:34.043Z,13.50
2018-02-17T11:51:34.927Z,13.03
2018-02-17T11:54:17.101Z,13.90
2018-02-17T12:19:49.447Z,30.70
2018-02-17T12:45:12.416Z,20.80
2018-02-17T12:47:44.480Z,20.53
2018-02-17T12:50:27.402Z,25.00
2018-02-17T13:22:20.726Z,23.10
2018-02-17T13:25:08.111Z,21.90
2018-02-17T13:30:19.460Z,24.33
2018-02-17T13:55:41.675Z,23.27
2018-02-17T13:58:13.703Z,25.53
2018-02-17T14:00:46.599Z,21.33
2018-02-17T14:03:35.056Z,17.63
2018-02-17T14:08:36.980Z,23.17
2018-02-17T14:11:09.072Z,27.47
2018-02-17T14:13:41.294Z,24.13
2018-02-17T14:16:13.332Z,34.77
2018-02-17T14:18:45.369Z,25.47
2018-02-17T14:21:19.088Z,28.57
2018-02-17T14:23:51.182Z,24.53
2018-02-17T14:26:23.216Z,27.83
2018-02-17T14:28:55.353Z,23.40
2018-02-17T14:31:27.514Z,20.43
2018-02-17T14:33:59.622Z,24.97
2018-02-17T14:36:31.605Z,19.50
2018-02-17T14:39:03.699Z,17.73
2018-02-17T14:41:35.842Z,24.33
2018-02-17T14:44:07.909Z,26.63
2018-02-17T14:46:39.874Z,20.07
2018-02-17T14:49:12.275Z,18.33
2018-02-17T14:51:44.528Z,18.43
2018-02-17T14:54:28.467Z,16.87
2018-02-17T15:19:45.986Z,16.37
2018-02-17T15:22:18.013Z,15.47
2018-02-17T15:24:50.136Z,14.97
2018-02-17T15:27:22.667Z,19.07
2018-02-17T15:29:55.325Z,16.07
2018-02-17T15:32:28.775Z,17.83
2018-02-17T15:35:16.906Z,16.47
2018-02-17T16:00:45.737Z,17.70
2018-02-17T16:03:17.854Z,16.63
2018-02-17T16:05:50.146Z,16.13
2018-02-17T16:08:22.395Z,16.83
2018-02-17T16:10:54.671Z,16.53
2018-02-17T16:13:41.871Z,16.13
2018-02-17T16:18:44.485Z,17.53
2018-02-17T16:21:16.822Z,22.80
2018-02-17T16:24:04.847Z,18.93
2018-02-17T16:49:26.978Z,22.10
2018-02-17T16:51:59.813Z,21.90
2018-02-17T16:54:31.986Z,23.30
2018-02-17T16:57:03.987Z,20.67
2018-02-17T16:59:36.986Z,23.70
2018-02-17T17:02:09.164Z,17.97
2018-02-17T17:04:42.125Z,17.07
2018-02-17T17:07:15.586Z,13.93
2018-02-17T17:09:48.532Z,12.70
2018-02-17T17:12:20.722Z,13.50
2018-02-17T17:15:08.504Z,13.47
2018-02-17T17:20:12.432Z,12.37
2018-02-17T17:22:45.406Z,12.00
2018-02-17T17:25:18.594Z,20.40
2018-02-17T17:28:01.077Z,11.27
2018-02-17T17:53:23.262Z,14.80
2018-02-17T17:55:55.309Z,14.87
2018-02-17T17:58:27.446Z,11.67
2018-02-17T18:00:59.641Z,12.17
2018-02-17T18:03:31.808Z,14.93
2018-02-17T18:06:03.951Z,11.87
2018-02-17T18:08:37.353Z,17.67
2018-02-17T18:11:10.144Z,15.23
2018-02-17T18:13:42.304Z,11.87
2018-02-17T18:16:15.333Z,12.57
2018-02-17T18:18:47.469Z,13.40
2018-02-17T18:21:19.558Z,10.47
2018-02-17T18:23:51.666Z,11.27
2018-02-17T18:26:24.303Z,10.80
2018-02-17T18:28:56.490Z,10.07
2018-02-17T18:31:28.936Z,11.53
2018-02-17T18:34:11.666Z,10.53
2018-02-17T18:59:29.065Z,9.90
2018-02-17T19:02:01.200Z,9.90
2018-02-17T19:04:33.322Z,9.07
2018-02-17T19:07:06.286Z,10.23
2018-02-17T19:09:38.468Z,10.13
2018-02-17T19:12:11.381Z,9.93
2018-02-17T19:14:44.072Z,9.13
2018-02-17T19:17:17.798Z,10.37
2018-02-17T19:19:50.790Z,9.00
2018-02-17T19:22:23.738Z,11.07
2018-02-17T19:24:55.853Z,9.17
2018-02-17T19:27:27.949Z,8.57
2018-02-17T19:30:00.358Z,9.63
2018-02-17T19:32:33.292Z,9.23
2018-02-17T19:35:06.249Z,9.97
2018-02-17T19:37:39.093Z,10.83
2018-02-17T19:40:11.980Z,9.23
2018-02-17T19:42:43.984Z,9.47
2018-02-17T19:45:17.049Z,11.23
2018-02-17T19:47:50.202Z,9.87
2018-02-17T19:50:22.297Z,12.67
2018-02-17T19:52:54.421Z,13.03
2018-02-17T19:55:26.682Z,9.57
2018-02-17T19:58:15.101Z,9.00
2018-02-17T20:06:30.195Z,9.60
2018-02-17T20:09:04.356Z,16.20
2018-02-17T20:16:22.743Z,10.37
2018-02-17T20:20:25.869Z,9.27
2018-02-17T20:22:58.090Z,10.00
2018-02-17T20:25:30.267Z,9.60
2018-02-17T20:28:02.727Z,8.67
2018-02-17T20:30:45.441Z,11.40
2018-02-17T20:56:08.854Z,8.93
2018-02-17T20:58:41.031Z,8.23
2018-02-17T21:01:13.505Z,7.20
2018-02-17T21:03:46.552Z,8.23
2018-02-17T21:06:19.199Z,9.60
2018-02-17T21:08:52.022Z,8.20
2018-02-17T21:11:25.223Z,8.43
2018-02-17T21:13:57.618Z,8.63
2018-02-17T21:16:29.812Z,6.83
2018-02-17T21:19:01.877Z,9.60
2018-02-17T21:21:33.930Z,8.37
2018-02-17T21:24:06.816Z,8.23
2018-02-17T21:26:38.959Z,7.57
2018-02-17T21:29:11.228Z,8.93
2018-02-17T21:31:43.917Z,5.80
2018-02-17T21:34:15.948Z,11.83
2018-02-17T21:36:49.170Z,6.93
2018-02-17T21:39:21.330Z,6.60
2018-02-17T21:41:53.402Z,7.63
2018-02-17T21:44:25.511Z,7.43
2018-02-17T21:46:57.661Z,8.50
2018-02-17T21:49:29.951Z,8.43
2018-02-17T21:52:02.936Z,7.97
2018-02-17T21:54:35.497Z,6.90
2018-02-17T21:57:08.514Z,6.10
2018-02-17T21:59:40.695Z,6.20
2018-02-17T22:02:13.659Z,6.90
2018-02-17T22:04:45.777Z,12.33
2018-02-17T22:07:18.267Z,5.70
2018-02-17T22:09:50.842Z,4.63
2018-02-17T22:12:22.978Z,6.20
2018-02-17T22:14:55.130Z,4.50
2018-02-17T22:17:27.932Z,9.90
2018-02-17T22:20:00.616Z,5.67
2018-02-17T22:22:32.842Z,6.77
2018-02-17T22:25:04.897Z,6.70
2018-02-17T22:27:37.031Z,6.20
2018-02-17T22:30:09.648Z,5.60
2018-02-17T22:32:41.933Z,8.07
2018-02-17T22:35:14.926Z,6.77
2018-02-17T22:37:47.373Z,6.23
2018-02-17T22:40:20.460Z,5.80
2018-02-17T22:42:52.832Z,6.07
2018-02-17T22:45:24.870Z,6.97
2018-02-17T22:47:57.076Z,7.50
2018-02-17T22:50:29.473Z,6.00
2018-02-17T22:53:01.966Z,5.17
2018-02-17T22:55:34.883Z,8.40
2018-02-17T22:58:07.866Z,8.70
2018-02-17T23:00:42.055Z,7.53
2018-02-17T23:03:14.895Z,4.40
2018-02-17T23:05:47.475Z,4.30
2018-02-17T23:08:21.135Z,8.13
2018-02-17T23:10:54.648Z,4.60
2018-02-17T23:13:27.428Z,5.60
2018-02-17T23:16:00.303Z,15.70
2018-02-17T23:18:32.957Z,7.00
2018-02-17T23:21:06.199Z,9.17
2018-02-17T23:23:40.477Z,5.30
2018-02-17T23:26:15.295Z,6.57
2018-02-17T23:28:48.397Z,6.10
2018-02-17T23:31:21.646Z,5.63
2018-02-17T23:33:54.499Z,5.87
2018-02-17T23:36:27.260Z,6.50
2018-02-17T23:39:01.237Z,4.37
2018-02-17T23:41:34.220Z,10.77
2018-02-17T23:44:07.969Z,6.43
2018-02-17T23:46:40.952Z,5.77
2018-02-17T23:49:13.475Z,5.20
2018-02-17T23:51:45.930Z,6.13
2018-02-17T23:54:18.512Z,6.80
2018-02-17T23:56:52.198Z,6.87
2018-02-17T23:59:25.755Z,9.70
